Gimlet, Kentucky
Current Conditions -  °F | °C
As of 2:50 AM on Tuesday 21 Oct 2014 (Local Time) from KSYM Reporting Station
Overcast Overcast  
Wind Chill: 52°   Ceiling: 5500
Heat Index: 52°   Visibility: 10mi
Dew Point: 50°   Wind: 8mph
Humidity: 94%   Direction: 230°SW
Pressure: 29.95"   Gusts: NA
Location:  38.3543°N, 83.1837°W
Report Text: KSYM 210650Z AUTO 23007KT 10SM OVC055 11/10 A2995 RMK AO2
Loading
Personal Weather Stations






























Interactive Weather Map
Tropical Storm Tracking
New forecast layout! Learn more

10-Day Weather Forecast

Advertisements
Track Severe Weather on mobile